Time;durP1;ratioP1;P1;durP2;ratioP2;P2;SDS_P1;SDS_P2;PMS_P1;PMS_P2;Temp;Humidity;BMP_temperature;BMP_pressure;BME280_temperature;BME280_humidity;BME280_pressure;Samples;Min_cycle;Max_cycle;Signal;HPM_P1;HPM_P2
2022/03/10 00:00:48;;;;;;;15.75;8.75;;;;;;;2.77;58.86;102539.00;2086662;28;43671;-68
2022/03/10 00:01:50;;;;;;;11.73;8.55;;;;;;;2.75;59.37;102551.28;2087420;28;44815;-67
2022/03/10 00:02:53;;;;;;;13.10;8.35;;;;;;;2.73;59.81;102542.38;2088616;28;20106;-68
2022/03/10 00:03:55;;;;;;;13.77;8.57;;;;;;;2.72;59.62;102545.88;2087665;28;45257;-69
2022/03/10 00:04:57;;;;;;;12.27;8.40;;;;;;;2.67;59.94;102545.72;2087662;28;41990;-68
2022/03/10 00:05:59;;;;;;;13.45;8.60;;;;;;;2.68;60.39;102549.25;2088046;28;27347;-68
2022/03/10 00:07:03;;;;;;;12.93;8.70;;;;;;;2.68;60.13;102544.84;2087640;28;44786;-69
2022/03/10 00:08:08;;;;;;;12.35;8.38;;;;;;;2.67;59.98;102552.72;2087792;28;29932;-69
2022/03/10 00:09:10;;;;;;;14.23;8.70;;;;;;;2.67;59.82;102548.38;2088226;28;20081;-69
2022/03/10 00:10:16;;;;;;;11.98;7.57;;;;;;;2.64;59.45;102550.91;2087716;28;34965;-69
2022/03/10 00:11:20;;;;;;;13.30;8.85;;;;;;;2.75;59.39;102547.75;2087156;28;45115;-68
2022/03/10 00:12:22;;;;;;;12.57;8.52;;;;;;;2.83;60.06;102549.78;2087553;28;44749;-69
2022/03/10 00:13:26;;;;;;;13.50;8.63;;;;;;;2.81;59.56;102555.88;2087439;28;42092;-68
2022/03/10 00:14:31;;;;;;;14.45;8.48;;;;;;;2.77;59.75;102552.22;2088751;28;20811;-68
2022/03/10 00:15:33;;;;;;;13.48;8.35;;;;;;;2.80;59.07;102554.06;2086704;28;43834;-68
2022/03/10 00:16:35;;;;;;;13.43;8.60;;;;;;;2.82;59.53;102555.03;2070748;28;45566;-68
2022/03/10 00:17:37;;;;;;;13.02;8.38;;;;;;;2.81;59.54;102556.75;2078597;28;45159;-68
2022/03/10 00:18:38;;;;;;;13.05;9.18;;;;;;;2.81;59.54;102556.75;2087614;28;38300;-67
2022/03/10 00:19:40;;;;;;;16.20;9.82;;;;;;;2.80;59.49;102551.41;2087199;28;43950;-68
2022/03/10 00:20:44;;;;;;;14.30;9.15;;;;;;;2.84;59.57;102556.00;2087089;28;44651;-68
2022/03/10 00:21:49;;;;;;;15.75;9.18;;;;;;;2.85;59.63;102557.78;2087897;28;20026;-68
2022/03/10 00:22:55;;;;;;;13.10;9.05;;;;;;;2.85;59.13;102555.13;2087473;28;44788;-68
2022/03/10 00:23:57;;;;;;;14.02;8.60;;;;;;;2.90;59.14;102558.84;2086519;28;43642;-68
2022/03/10 00:24:58;;;;;;;13.38;8.75;;;;;;;2.90;58.88;102550.91;2086981;28;44046;-69
2022/03/10 00:26:00;;;;;;;13.95;8.73;;;;;;;3.00;58.44;102558.31;2087322;28;43266;-68
2022/03/10 00:27:04;;;;;;;14.02;8.40;;;;;;;3.00;59.13;102563.59;2087858;28;20069;-68
2022/03/10 00:28:06;;;;;;;11.93;8.00;;;;;;;2.95;59.26;102559.91;2087721;28;45547;-68
2022/03/10 00:29:08;;;;;;;14.20;8.80;;;;;;;2.92;58.82;102559.78;2087050;28;42326;-69
2022/03/10 00:30:10;;;;;;;12.98;8.68;;;;;;;2.95;59.38;102559.91;2086374;28;45328;-68
2022/03/10 00:31:12;;;;;;;14.05;9.10;;;;;;;2.95;58.79;102553.72;2087370;28;44229;-68
2022/03/10 00:32:13;;;;;;;14.50;8.43;;;;;;;2.93;59.67;102556.31;2087722;28;37207;-68
2022/03/10 00:33:15;;;;;;;12.95;8.57;;;;;;;2.91;59.71;102554.44;2095370;28;43346;-68
2022/03/10 00:34:18;;;;;;;13.70;8.65;;;;;;;2.90;59.25;102545.59;2095765;28;20041;-69
2022/03/10 00:35:23;;;;;;;12.57;9.07;;;;;;;2.89;59.79;102554.41;2087258;28;45230;-68
2022/03/10 00:36:30;;;;;;;13.60;8.88;;;;;;;2.87;59.42;102556.06;2086951;28;44127;-68
2022/03/10 00:37:31;;;;;;;13.20;8.93;;;;;;;2.87;59.76;102556.06;2086666;28;42433;-68
2022/03/10 00:38:34;;;;;;;13.70;8.55;;;;;;;2.82;59.65;102555.03;2087700;28;34487;-68
2022/03/10 00:39:38;;;;;;;13.57;9.25;;;;;;;2.79;59.93;102554.94;2087520;28;45684;-68
2022/03/10 00:40:39;;;;;;;14.73;8.93;;;;;;;2.77;59.80;102559.28;2087213;28;42785;-68
2022/03/10 00:41:41;;;;;;;14.45;7.80;;;;;;;2.73;59.84;102555.63;2087557;28;41986;-68
2022/03/10 00:42:43;;;;;;;14.52;8.20;;;;;;;2.72;60.09;102560.84;2087782;28;43627;-69
2022/03/10 00:43:45;;;;;;;13.63;8.70;;;;;;;2.68;60.31;102557.19;2088857;28;44945;-68
2022/03/10 00:44:47;;;;;;;12.60;8.23;;;;;;;2.62;59.55;102555.22;2088671;28;45546;-69
2022/03/10 00:45:48;;;;;;;13.68;9.30;;;;;;;2.57;60.42;102558.56;2087854;28;45376;-68
2022/03/10 00:46:50;;;;;;;16.85;9.43;;;;;;;2.55;60.56;102563.78;2088607;28;45449;-69
2022/03/10 00:47:52;;;;;;;17.40;8.82;;;;;;;2.52;60.43;102560.13;2088467;28;43601;-68
2022/03/10 00:48:55;;;;;;;12.63;8.20;;;;;;;2.50;61.29;102554.78;2089497;28;20045;-68
2022/03/10 00:49:56;;;;;;;12.63;9.00;;;;;;;2.48;61.01;102560.00;2088274;28;43373;-69
2022/03/10 00:50:58;;;;;;;13.35;9.18;;;;;;;2.44;61.43;102562.47;2096659;28;44960;-67
2022/03/10 00:52:00;;;;;;;12.75;8.60;;;;;;;2.41;61.96;102555.34;2087895;28;44607;-68
2022/03/10 00:53:02;;;;;;;14.65;9.27;;;;;;;2.36;61.51;102556.91;2089138;28;42649;-69
2022/03/10 00:54:03;;;;;;;13.55;8.90;;;;;;;2.36;61.75;102551.63;2088986;28;44551;-69
2022/03/10 00:55:06;;;;;;;11.30;8.15;;;;;;;2.33;61.77;102561.19;2088405;28;44223;-69
2022/03/10 00:56:08;;;;;;;14.77;9.13;;;;;;;2.27;61.90;102554.81;2090892;28;43289;-68
2022/03/10 00:57:10;;;;;;;13.77;9.30;;;;;;;2.21;61.82;102557.25;2088781;28;39857;-69
2022/03/10 00:58:11;;;;;;;12.63;8.77;;;;;;;2.18;61.75;102564.16;2080165;28;45665;-69
2022/03/10 00:59:13;;;;;;;14.45;9.18;;;;;;;2.19;62.33;102564.22;2080666;28;44058;-69
2022/03/10 01:00:15;;;;;;;14.48;9.35;;;;;;;2.14;62.02;102565.78;2084045;28;46650;-68
2022/03/10 01:01:17;;;;;;;12.68;8.82;;;;;;;2.10;62.27;102561.25;2088376;28;43876;-68
2022/03/10 01:02:19;;;;;;;17.20;9.30;;;;;;;2.09;62.72;102556.78;2088766;28;38731;-68
2022/03/10 01:03:21;;;;;;;13.55;8.90;;;;;;;2.03;62.42;102561.84;2088769;28;44579;-68
2022/03/10 01:04:22;;;;;;;12.15;8.32;;;;;;;1.99;62.50;102558.19;2087843;28;45719;-68
2022/03/10 01:05:25;;;;;;;13.60;9.38;;;;;;;2.01;63.03;102563.50;2089255;28;20123;-69
2022/03/10 01:06:27;;;;;;;12.68;8.82;;;;;;;2.00;63.17;102561.72;2088463;28;42313;-69
2022/03/10 01:07:28;;;;;;;15.10;8.85;;;;;;;2.01;62.53;102561.78;2088585;28;45506;-68
2022/03/10 01:08:30;;;;;;;13.63;8.88;;;;;;;1.96;63.58;102566.00;2087477;28;45430;-68
2022/03/10 01:09:31;;;;;;;14.95;9.82;;;;;;;1.96;62.75;102566.00;2088433;28;44578;-68
2022/03/10 01:10:33;;;;;;;16.70;9.93;;;;;;;1.94;63.06;102561.47;2088573;28;44877;-68
2022/03/10 01:11:38;;;;;;;13.80;8.38;;;;;;;1.91;63.68;102556.97;2088563;28;41944;-69
2022/03/10 01:12:42;;;;;;;12.90;9.00;;;;;;;1.92;63.54;102553.50;2088404;28;45144;-69
2022/03/10 01:13:46;;;;;;;16.80;9.75;;;;;;;1.86;63.23;102562.06;2088081;28;44479;-69
2022/03/10 01:14:48;;;;;;;14.35;9.18;;;;;;;1.82;63.58;102562.81;2088419;28;33648;-69
2022/03/10 01:15:49;;;;;;;15.32;9.05;;;;;;;1.77;63.46;102569.63;2087479;28;44772;-69
2022/03/10 01:16:51;;;;;;;13.82;9.13;;;;;;;1.78;64.03;102566.19;2089063;28;42196;-68
2022/03/10 01:17:57;;;;;;;13.98;9.13;;;;;;;1.74;63.72;102565.97;2089253;28;44607;-70
2022/03/10 01:18:58;;;;;;;15.15;9.25;;;;;;;1.68;63.93;102572.81;2088760;28;38995;-68
2022/03/10 01:20:00;;;;;;;12.35;8.73;;;;;;;1.64;64.01;102575.28;2087827;28;41989;-69
2022/03/10 01:21:02;;;;;;;15.40;9.75;;;;;;;1.65;64.61;102569.16;2088196;28;44049;-69
2022/03/10 01:22:04;;;;;;;13.68;9.15;;;;;;;1.64;64.15;102570.00;2089521;28;20041;-68
2022/03/10 01:23:05;;;;;;;16.02;9.57;;;;;;;1.63;64.24;102562.91;2088550;28;45124;-68
2022/03/10 01:24:07;;;;;;;14.52;8.82;;;;;;;1.66;64.64;102566.56;2088406;28;46453;-69
2022/03/10 01:25:10;;;;;;;14.25;9.18;;;;;;;1.69;64.55;102568.47;2088831;28;42459;-69
2022/03/10 01:26:12;;;;;;;12.55;8.98;;;;;;;1.65;64.59;102570.06;2087655;28;20077;-69
2022/03/10 01:27:16;;;;;;;13.38;9.27;;;;;;;1.65;64.21;102571.78;2089389;28;40352;-68
2022/03/10 01:28:17;;;;;;;13.02;8.70;;;;;;;1.66;64.09;102570.97;2088916;28;43137;-69
2022/03/10 01:29:22;;;;;;;17.92;9.85;;;;;;;1.66;64.17;102571.84;2088717;28;20111;-67
2022/03/10 01:30:24;;;;;;;15.63;9.90;;;;;;;1.66;64.55;102576.25;2088064;28;42263;-69
2022/03/10 01:31:25;;;;;;;12.80;8.88;;;;;;;1.62;64.24;102564.66;2087894;28;44065;-68
2022/03/10 01:32:27;;;;;;;13.02;8.63;;;;;;;1.60;64.66;102568.97;2089689;28;20045;-68
2022/03/10 01:33:29;;;;;;;12.95;8.30;;;;;;;1.60;64.54;102568.06;2088660;28;43957;-68
2022/03/10 01:34:31;;;;;;;15.30;8.95;;;;;;;1.59;64.83;102572.44;2088157;28;46912;-67
2022/03/10 01:35:33;;;;;;;13.20;9.30;;;;;;;1.60;65.02;102565.41;2089098;28;20858;-68
2022/03/10 01:36:34;;;;;;;14.65;9.68;;;;;;;1.63;65.16;102565.56;2088707;28;25013;-68
2022/03/10 01:37:39;;;;;;;17.48;10.35;;;;;;;1.56;64.53;102574.94;2088357;28;34118;-68
2022/03/10 01:38:42;;;;;;;14.05;9.88;;;;;;;1.52;64.98;102566.00;2088805;28;45283;-69
2022/03/10 01:39:44;;;;;;;13.98;9.68;;;;;;;1.52;64.92;102568.66;2089043;28;20053;-69
2022/03/10 01:40:46;;;;;;;14.90;9.68;;;;;;;1.51;65.07;102566.88;2088502;28;45746;-68
2022/03/10 01:41:48;;;;;;;13.20;8.85;;;;;;;1.50;65.13;102564.16;2088013;28;45198;-68
2022/03/10 01:42:49;;;;;;;16.15;9.73;;;;;;;1.56;65.54;102566.13;2095168;28;46476;-69
2022/03/10 01:43:59;;;;;;;15.45;8.80;;;;;;;1.50;64.76;102569.44;2096012;28;42510;-68
2022/03/10 01:45:01;;;;;;;15.77;9.25;;;;;;;1.52;65.47;102570.41;2088378;28;45498;-69
2022/03/10 01:46:07;;;;;;;14.43;9.40;;;;;;;1.55;65.71;102574.91;2087933;28;43429;-68
2022/03/10 01:47:10;;;;;;;13.07;9.23;;;;;;;1.46;65.53;102565.78;2097233;28;20041;-68
2022/03/10 01:48:12;;;;;;;12.45;8.93;;;;;;;1.41;65.32;102575.25;2094237;28;45201;-69
2022/03/10 01:49:14;;;;;;;14.07;9.43;;;;;;;1.41;64.85;102575.25;2088623;28;33125;-69
2022/03/10 01:50:17;;;;;;;15.60;9.43;;;;;;;1.50;65.97;102570.34;2087983;28;45843;-68
2022/03/10 01:51:22;;;;;;;15.38;9.35;;;;;;;1.46;64.85;102573.69;2080603;28;20049;-68
2022/03/10 01:52:28;;;;;;;16.35;10.10;;;;;;;1.51;65.06;102579.19;2080427;28;45701;-68
2022/03/10 01:53:29;;;;;;;16.25;9.63;;;;;;;1.53;65.35;102578.38;2087639;28;44912;-68
2022/03/10 01:54:31;;;;;;;15.02;9.88;;;;;;;1.47;64.81;102580.78;2078830;28;42078;-68
2022/03/10 01:55:33;;;;;;;16.67;8.95;;;;;;;1.48;65.72;102579.03;2079279;28;45525;-67
2022/03/10 01:56:35;;;;;;;13.52;9.50;;;;;;;1.51;65.57;102580.06;2086798;28;45643;-68
2022/03/10 01:57:37;;;;;;;14.05;9.35;;;;;;;1.54;65.43;102584.56;2080088;28;36267;-69
2022/03/10 01:58:39;;;;;;;12.90;8.95;;;;;;;1.56;65.61;102574.94;2087967;28;45660;-68
2022/03/10 01:59:41;;;;;;;18.17;9.55;;;;;;;1.58;65.74;102578.59;2087650;28;43660;-68
2022/03/10 02:00:45;;;;;;;14.38;9.27;;;;;;;1.56;64.98;102571.41;2087309;28;45049;-68
2022/03/10 02:01:47;;;;;;;14.45;9.80;;;;;;;1.60;65.37;102573.34;2087610;28;45461;-68
2022/03/10 02:02:49;;;;;;;16.92;10.00;;;;;;;1.56;64.55;102574.94;2088574;28;39127;-69
2022/03/10 02:03:51;;;;;;;15.45;9.93;;;;;;;1.58;65.47;102572.38;2089006;28;20957;-69
2022/03/10 02:04:52;;;;;;;15.05;9.38;;;;;;;1.56;64.94;102574.06;2096166;28;45724;-69
2022/03/10 02:05:54;;;;;;;14.60;9.27;;;;;;;1.57;65.18;102571.50;2087513;28;43841;-69
2022/03/10 02:06:56;;;;;;;15.00;9.50;;;;;;;1.56;65.56;102571.41;2087197;28;43457;-68
2022/03/10 02:10:39;;;;;;;15.07;8.93;;;;;;;1.50;65.50;102577.34;2088287;28;44753;-68
2022/03/10 02:11:41;;;;;;;14.68;10.32;;;;;;;1.56;65.44;102581.97;2088123;28;44999;-69
2022/03/10 02:12:46;;;;;;;14.55;9.52;;;;;;;1.52;65.45;102575.69;2088109;28;46146;-69
2022/03/10 02:13:48;;;;;;;15.63;9.70;;;;;;;1.51;65.24;102577.44;2088349;28;41997;-69
2022/03/10 02:17:39;;;;;;;17.48;10.35;;;;;;;1.43;65.97;102570.03;2088039;28;44258;-68
2022/03/10 02:18:41;;;;;;;16.65;10.38;;;;;;;1.40;65.91;102570.81;2088178;28;46179;-68
2022/03/10 02:19:43;;;;;;;12.82;9.20;;;;;;;1.40;65.87;102568.19;2088393;28;34355;-68
2022/03/10 02:20:45;;;;;;;16.20;9.77;;;;;;;1.37;66.21;102565.41;2087765;28;44061;-68
2022/03/10 02:21:49;;;;;;;15.52;10.13;;;;;;;1.34;66.20;102574.06;2087609;28;46169;-69
2022/03/10 02:22:51;;;;;;;14.65;9.88;;;;;;;1.37;66.49;102569.78;2087571;28;38020;-68
2022/03/10 02:23:53;;;;;;;14.15;10.00;;;;;;;1.34;66.01;102573.19;2087287;28;44941;-69
2022/03/10 02:24:55;;;;;;;15.65;9.73;;;;;;;1.32;66.13;102566.94;2084139;28;43232;-67
2022/03/10 02:26:00;;;;;;;15.82;9.98;;;;;;;1.31;66.49;102567.78;2088277;28;36186;-69
2022/03/10 02:27:21;;;;;;;16.55;10.75;;;;;;;1.27;66.51;102566.75;2080765;28;20235;-68
2022/03/10 02:28:25;;;;;;;16.60;10.38;;;;;;;1.32;66.53;102561.66;2079813;28;43559;-68
2022/03/10 02:29:27;;;;;;;14.52;9.18;;;;;;;1.31;66.73;102557.22;2079013;28;43340;-67
2022/03/10 02:30:31;;;;;;;15.80;10.48;;;;;;;1.27;66.50;102560.56;2080121;28;20045;-68
2022/03/10 02:31:33;;;;;;;16.00;10.98;;;;;;;1.33;66.68;102555.56;2083677;28;45061;-68
2022/03/10 02:32:34;;;;;;;16.38;10.80;;;;;;;1.31;67.33;102555.50;2088241;28;46445;-69
2022/03/10 02:33:38;;;;;;;14.43;10.25;;;;;;;1.36;66.48;102557.41;2087948;28;43426;-68
2022/03/10 02:34:41;;;;;;;15.52;10.30;;;;;;;1.38;66.98;102556.63;2088138;28;45438;-68
2022/03/10 02:35:44;;;;;;;15.02;10.15;;;;;;;1.36;66.72;102558.31;2087901;28;44208;-68
2022/03/10 02:36:45;;;;;;;16.08;10.90;;;;;;;1.39;66.60;102555.81;2088353;28;40548;-69
2022/03/10 02:37:47;;;;;;;18.63;10.80;;;;;;;1.37;66.76;102551.31;2087302;28;45346;-68
2022/03/10 02:38:52;;;;;;;17.67;10.73;;;;;;;1.39;66.63;102547.88;2087808;28;43463;-68
2022/03/10 02:39:54;;;;;;;17.85;10.25;;;;;;;1.42;66.56;102558.59;2087618;28;39240;-68
2022/03/10 02:40:55;;;;;;;17.63;10.88;;;;;;;1.42;66.47;102550.66;2087722;28;45707;-69
2022/03/10 02:41:57;;;;;;;16.10;10.07;;;;;;;1.46;66.63;102554.31;2087325;28;46922;-68
2022/03/10 02:42:59;;;;;;;16.65;10.68;;;;;;;1.42;66.45;102555.03;2087483;28;44784;-68
2022/03/10 02:44:00;;;;;;;16.10;10.40;;;;;;;1.51;66.73;102548.38;2088006;28;41137;-69
2022/03/10 02:45:03;;;;;;;14.88;9.88;;;;;;;1.58;66.30;102551.25;2088372;28;43345;-68
2022/03/10 02:46:05;;;;;;;15.45;10.35;;;;;;;1.57;65.74;102555.66;2087668;28;44386;-68
2022/03/10 02:47:08;;;;;;;19.17;10.77;;;;;;;1.55;66.33;102552.06;2088138;28;43344;-69
2022/03/10 02:48:09;;;;;;;15.25;10.35;;;;;;;1.50;66.15;102557.13;2087144;28;43871;-68
2022/03/10 02:49:11;;;;;;;18.15;10.02;;;;;;;1.48;65.83;102556.19;2087579;28;38015;-68
2022/03/10 02:50:13;;;;;;;17.05;10.60;;;;;;;1.58;66.04;102556.53;2087498;28;45101;-69
2022/03/10 02:51:14;;;;;;;16.08;10.68;;;;;;;1.59;66.33;102555.72;2088876;28;20045;-68
2022/03/10 02:52:16;;;;;;;16.38;10.60;;;;;;;1.54;66.17;102558.16;2087080;28;42141;-68
2022/03/10 02:53:18;;;;;;;16.13;10.13;;;;;;;1.48;66.02;102555.28;2087533;28;45314;-68
2022/03/10 02:54:20;;;;;;;14.13;9.63;;;;;;;1.43;66.50;102557.72;2087992;28;44721;-69
2022/03/10 02:55:28;;;;;;;15.82;10.32;;;;;;;1.36;66.33;102552.16;2087295;28;45435;-70
2022/03/10 02:56:29;;;;;;;16.15;10.82;;;;;;;1.48;67.03;102558.81;2080013;28;45129;-68
2022/03/10 02:57:37;;;;;;;15.30;10.63;;;;;;;1.34;66.55;102557.34;2088473;28;20041;-68
2022/03/10 02:58:39;;;;;;;15.00;10.35;;;;;;;1.35;66.94;102559.16;2087982;28;35093;-68
2022/03/10 02:59:42;;;;;;;16.42;10.93;;;;;;;1.38;66.44;102558.38;2087328;28;43211;-69
2022/03/10 03:00:44;;;;;;;14.60;10.40;;;;;;;1.34;66.57;102552.06;2087165;28;45092;-69
2022/03/10 03:01:46;;;;;;;15.25;10.40;;;;;;;1.37;67.04;102551.31;2087351;28;43732;-68
2022/03/10 03:02:47;;;;;;;14.07;9.82;;;;;;;1.38;66.37;102546.06;2087370;28;42256;-68
2022/03/10 03:03:49;;;;;;;16.83;10.82;;;;;;;1.38;66.89;102542.53;2087854;28;45806;-69
2022/03/10 03:04:54;;;;;;;14.40;10.15;;;;;;;1.36;67.03;102539.84;2087618;28;45446;-68
2022/03/10 03:05:55;;;;;;;16.17;10.20;;;;;;;1.35;66.81;102538.06;2086584;28;45425;-69
2022/03/10 03:06:58;;;;;;;15.70;10.75;;;;;;;1.31;66.82;102542.31;2087303;28;46343;-68
2022/03/10 03:07:59;;;;;;;15.70;10.77;;;;;;;1.32;67.02;102538.81;2087665;28;43464;-68
2022/03/10 03:09:01;;;;;;;16.55;9.65;;;;;;;1.30;66.84;102539.59;2087113;28;44021;-68
2022/03/10 03:10:03;;;;;;;16.05;10.95;;;;;;;1.30;66.71;102529.06;2086929;28;45990;-69
2022/03/10 03:11:05;;;;;;;15.70;10.38;;;;;;;1.34;66.63;102533.59;2086712;28;43852;-70
2022/03/10 03:12:07;;;;;;;16.55;10.82;;;;;;;1.47;66.90;102538.56;2086696;28;45408;-69
2022/03/10 03:13:08;;;;;;;15.77;9.93;;;;;;;1.29;66.34;102540.44;2088023;28;43728;-69
2022/03/10 03:14:10;;;;;;;19.95;10.75;;;;;;;1.29;66.99;102538.72;2087483;28;43996;-69
2022/03/10 03:15:14;;;;;;;14.82;10.18;;;;;;;1.24;67.09;102539.34;2087383;28;31057;-68
2022/03/10 03:16:19;;;;;;;15.68;10.52;;;;;;;1.21;67.25;102536.59;2087724;28;42668;-69
2022/03/10 03:17:21;;;;;;;17.55;11.25;;;;;;;1.19;67.50;102535.63;2087122;28;44175;-68
2022/03/10 03:18:22;;;;;;;17.33;9.63;;;;;;;1.19;67.72;102543.56;2088105;28;25675;-69
2022/03/10 03:19:25;;;;;;;17.20;10.70;;;;;;;1.18;67.12;102544.38;2087529;28;45217;-67
2022/03/10 03:20:27;;;;;;;17.45;11.07;;;;;;;1.11;66.74;102546.78;2087753;28;45343;-69
2022/03/10 03:21:29;;;;;;;15.85;10.10;;;;;;;1.08;67.53;102549.28;2087484;28;42714;-69
2022/03/10 03:22:31;;;;;;;15.68;10.40;;;;;;;1.10;67.54;102544.94;2088836;28;22991;-68
2022/03/10 03:23:33;;;;;;;14.75;10.85;;;;;;;1.13;67.84;102550.38;2087514;28;45474;-68
2022/03/10 03:24:34;;;;;;;16.42;10.27;;;;;;;1.13;67.43;102553.00;2088094;28;45468;-69
2022/03/10 03:25:38;;;;;;;16.33;10.70;;;;;;;1.08;67.21;102554.53;2088600;28;20053;-68
2022/03/10 03:26:41;;;;;;;15.32;10.57;;;;;;;1.07;67.49;102552.72;2088393;28;33577;-69
2022/03/10 03:27:44;;;;;;;15.77;10.95;;;;;;;1.03;67.63;102550.81;2087312;28;45563;-68
2022/03/10 03:28:46;;;;;;;16.38;11.13;;;;;;;1.02;67.93;102559.53;2087147;28;47099;-69
2022/03/10 03:29:47;;;;;;;16.77;10.60;;;;;;;1.01;67.98;102563.03;2087233;28;36524;-68
2022/03/10 03:30:50;;;;;;;16.95;11.20;;;;;;;1.04;68.35;102562.25;2087896;28;46475;-69
2022/03/10 03:31:52;;;;;;;13.65;9.50;;;;;;;0.94;67.51;102566.25;2087812;28;43673;-69
2022/03/10 03:32:53;;;;;;;16.60;10.68;;;;;;;0.89;68.38;102563.41;2087691;28;45338;-68
2022/03/10 03:33:55;;;;;;;16.85;10.70;;;;;;;0.88;68.10;102571.25;2087081;28;46171;-69
2022/03/10 03:34:57;;;;;;;18.23;11.20;;;;;;;0.94;68.26;102561.88;2086987;28;43938;-68
2022/03/10 03:35:58;;;;;;;17.50;10.80;;;;;;;0.88;68.17;102572.16;2086563;28;45592;-69
2022/03/10 03:37:03;;;;;;;16.30;10.63;;;;;;;0.81;68.29;102571.81;2087228;28;44530;-69
2022/03/10 03:38:05;;;;;;;14.50;10.25;;;;;;;0.75;68.62;102570.72;2087676;28;43617;-69
2022/03/10 03:39:08;;;;;;;15.43;10.57;;;;;;;0.66;68.51;102572.94;2087555;28;46226;-68
2022/03/10 03:40:11;;;;;;;16.92;10.57;;;;;;;0.65;68.94;102565.88;2087664;28;43879;-68
2022/03/10 03:41:13;;;;;;;16.77;10.35;;;;;;;0.59;68.76;102573.50;2086095;28;45240;-68
2022/03/10 03:42:14;;;;;;;19.33;11.68;;;;;;;0.59;69.45;102576.13;2087102;28;45652;-69
2022/03/10 03:43:16;;;;;;;16.23;11.65;;;;;;;0.64;69.92;102576.34;2085197;28;43736;-69
2022/03/10 03:44:18;;;;;;;16.02;10.27;;;;;;;0.52;69.28;102575.00;2086575;28;46412;-69
2022/03/10 03:45:20;;;;;;;17.60;11.13;;;;;;;0.51;69.92;102570.53;2087891;28;43439;-69
2022/03/10 03:46:22;;;;;;;16.08;10.73;;;;;;;0.49;69.50;102576.59;2087482;28;46045;-69
2022/03/10 03:47:23;;;;;;;17.98;11.95;;;;;;;0.55;69.86;102571.56;2088090;28;44723;-69
2022/03/10 03:48:25;;;;;;;20.13;11.73;;;;;;;0.58;69.76;102579.63;2087220;28;36669;-69
2022/03/10 03:49:27;;;;;;;15.95;10.77;;;;;;;0.58;69.85;102582.25;2086455;28;44589;-69
2022/03/10 03:50:28;;;;;;;17.02;10.88;;;;;;;0.56;70.28;102578.66;2086739;28;40957;-68
2022/03/10 03:51:31;;;;;;;16.58;12.05;;;;;;;0.54;69.90;102575.94;2085935;28;30175;-69
2022/03/10 03:52:34;;;;;;;17.90;12.30;;;;;;;0.52;70.13;102582.88;2088576;28;45866;-69
2022/03/10 03:53:40;;;;;;;17.80;11.02;;;;;;;0.44;69.51;102579.00;2086017;28;44816;-69
2022/03/10 03:54:44;;;;;;;19.70;11.27;;;;;;;0.40;70.07;102581.44;2080457;28;33623;-69
2022/03/10 03:55:47;;;;;;;17.92;11.77;;;;;;;0.43;69.90;102576.28;2087729;28;38821;-68
2022/03/10 03:56:49;;;;;;;17.38;11.43;;;;;;;0.37;69.99;102577.81;2087693;28;44102;-69
2022/03/10 03:57:50;;;;;;;19.08;12.00;;;;;;;0.35;70.09;102578.59;2087595;28;45292;-69
2022/03/10 03:58:54;;;;;;;16.80;11.57;;;;;;;0.32;70.50;102584.63;2086905;28;20037;-69
2022/03/10 03:59:55;;;;;;;17.02;11.80;;;;;;;0.48;70.69;102583.56;2084976;28;43378;-68
2022/03/10 04:00:59;;;;;;;17.52;11.18;;;;;;;0.34;70.31;102584.69;2087069;28;20052;-67
2022/03/10 04:02:03;;;;;;;17.45;11.85;;;;;;;0.27;69.75;102596.69;2088417;28;24614;-68
2022/03/10 04:03:10;;;;;;;20.65;11.90;;;;;;;0.28;70.41;102593.19;2086803;28;45248;-69
2022/03/10 04:04:12;;;;;;;14.55;10.23;;;;;;;0.22;70.03;102592.94;2087250;28;41060;-68
2022/03/10 04:05:15;;;;;;;15.48;10.30;;;;;;;0.18;70.36;102598.91;2087499;28;45406;-69
2022/03/10 04:06:17;;;;;;;19.25;11.15;;;;;;;0.23;71.80;102597.34;2087560;28;44366;-69
2022/03/10 04:07:19;;;;;;;18.83;10.68;;;;;;;0.10;70.66;102598.53;2087230;28;44268;-69
2022/03/10 04:08:21;;;;;;;16.75;11.70;;;;;;;-0.01;70.31;102595.38;2087568;28;46128;-69
2022/03/10 04:09:23;;;;;;;14.88;10.77;;;;;;;-0.07;71.35;102602.09;2087825;28;20904;-69
2022/03/10 04:10:25;;;;;;;17.60;11.73;;;;;;;-0.12;71.02;102596.63;2089012;28;20045;-69
2022/03/10 04:11:26;;;;;;;18.38;11.50;;;;;;;-0.14;71.70;102598.28;2086935;28;45456;-69
2022/03/10 04:12:30;;;;;;;16.60;11.55;;;;;;;-0.12;72.44;102593.97;2086842;28;44081;-69
2022/03/10 04:13:34;;;;;;;16.70;11.73;;;;;;;-0.09;71.94;102595.84;2086989;28;45863;-69
2022/03/10 04:14:37;;;;;;;20.98;12.50;;;;;;;-0.10;71.95;102594.06;2087469;28;41850;-69
2022/03/10 04:15:39;;;;;;;20.85;12.05;;;;;;;-0.08;71.94;102595.03;2086465;28;43306;-68
2022/03/10 04:16:41;;;;;;;16.45;11.18;;;;;;;-0.06;73.36;102593.38;2086862;28;43288;-67
2022/03/10 04:17:45;;;;;;;17.10;11.32;;;;;;;-0.05;72.28;102582.91;2087235;28;43921;-68
2022/03/10 04:18:46;;;;;;;17.98;11.57;;;;;;;-0.08;72.46;102587.13;2087089;28;44443;-69
2022/03/10 04:19:48;;;;;;;18.15;12.35;;;;;;;-0.04;72.98;102586.44;2086838;28;44554;-69
2022/03/10 04:20:52;;;;;;;18.85;11.63;;;;;;;-0.05;72.13;102582.91;2087175;28;44143;-69
2022/03/10 04:21:54;;;;;;;16.08;10.75;;;;;;;-0.05;72.51;102587.28;2088165;28;20160;-69
2022/03/10 04:22:55;;;;;;;18.25;10.93;;;;;;;-0.09;72.43;102591.50;2088397;28;41985;-69
2022/03/10 04:23:57;;;;;;;14.90;10.15;;;;;;;-0.05;72.94;102588.19;2088145;28;45822;-69
2022/03/10 04:24:58;;;;;;;20.15;11.98;;;;;;;-0.06;72.42;102586.38;2087429;28;46037;-68
2022/03/10 04:26:00;;;;;;;20.95;12.10;;;;;;;-0.06;72.55;102593.38;2087239;28;45518;-69
2022/03/10 04:27:03;;;;;;;18.95;11.38;;;;;;;-0.09;71.91;102588.88;2086265;28;46565;-69
2022/03/10 04:28:05;;;;;;;18.33;12.27;;;;;;;-0.10;72.68;102589.69;2086785;28;41814;-69
2022/03/10 04:29:07;;;;;;;17.02;12.02;;;;;;;-0.11;72.10;102592.25;2087353;28;43921;-69
2022/03/10 04:30:09;;;;;;;16.15;11.52;;;;;;;-0.13;72.62;102592.16;2086986;28;45565;-69
2022/03/10 04:31:11;;;;;;;16.77;12.18;;;;;;;-0.16;72.38;102593.75;2086926;28;45441;-69
2022/03/10 04:32:13;;;;;;;16.35;11.20;;;;;;;-0.12;72.70;102586.09;2086817;28;45330;-69
2022/03/10 04:33:15;;;;;;;16.65;11.27;;;;;;;-0.06;73.03;102588.09;2087936;28;35823;-69
2022/03/10 04:34:16;;;;;;;17.83;13.02;;;;;;;-0.12;72.87;102590.47;2087175;28;44107;-69
2022/03/10 04:35:20;;;;;;;20.85;11.40;;;;;;;-0.03;73.02;102591.78;2087572;28;44522;-69
2022/03/10 04:36:22;;;;;;;19.05;12.77;;;;;;;-0.01;72.98;102590.13;2087145;28;44298;-69
2022/03/10 04:37:24;;;;;;;19.08;12.50;;;;;;;0.07;72.67;102597.47;2087022;28;46666;-69
2022/03/10 04:38:26;;;;;;;20.02;12.20;;;;;;;0.09;72.12;102586.19;2088635;28;20085;-69
2022/03/10 04:39:28;;;;;;;17.45;12.27;;;;;;;0.12;71.76;102595.97;2087070;28;45075;-69
2022/03/10 04:40:29;;;;;;;20.05;12.27;;;;;;;0.11;71.97;102594.19;2086926;28;47639;-69
2022/03/10 04:41:31;;;;;;;16.58;12.02;;;;;;;0.13;71.92;102598.66;2087114;28;43623;-68
2022/03/10 04:42:34;;;;;;;18.27;12.60;;;;;;;0.13;72.43;102597.78;2085978;28;45331;-70
2022/03/10 04:43:39;;;;;;;16.48;10.73;;;;;;;0.10;71.86;102597.63;2087245;28;20138;-69
2022/03/10 04:44:41;;;;;;;17.92;11.55;;;;;;;0.08;71.50;102597.56;2087233;28;44982;-70
2022/03/10 04:45:45;;;;;;;18.02;12.18;;;;;;;0.03;72.01;102592.91;2086735;28;46499;-69
2022/03/10 04:46:46;;;;;;;17.10;11.05;;;;;;;-0.01;71.86;102592.75;2087228;28;43303;-69
2022/03/10 04:47:48;;;;;;;15.88;11.57;;;;;;;0.08;72.55;102596.66;2087016;28;45728;-69
2022/03/10 04:48:50;;;;;;;18.90;12.00;;;;;;;0.03;71.84;102598.16;2087057;28;45807;-69
2022/03/10 04:49:51;;;;;;;17.92;10.88;;;;;;;0.01;71.86;102606.00;2087486;28;43764;-69
2022/03/10 04:50:53;;;;;;;16.73;11.07;;;;;;;-0.04;72.32;102603.13;2087316;28;20885;-69
2022/03/10 04:51:57;;;;;;;16.05;11.50;;;;;;;0.01;72.24;102599.84;2087360;28;43417;-70
2022/03/10 04:53:01;;;;;;;20.52;12.32;;;;;;;-0.06;71.88;102611.78;2087043;28;45477;-69
2022/03/10 04:54:03;;;;;;;18.83;12.43;;;;;;;-0.01;72.59;102612.91;2087878;28;44348;-69